In Rescue
 
Open Full Screen Window  High Contrast Mode
October 19, 2020 7:36 PM EDT
Weather Information
Wind Direction
  ---
Wind Speed
  00 kt (0 mph)
Wind Gust
  00 kt (0 mph)
Altimeter
30.22 in
Visibility
10 SM
Temperature
04° C
39° F
Dewpoint
-02° C
28° F
Humidity
65%
Sky Condition
Overcast @ 11,000 ft
Broken @ 8,500 ft
VFR

METAR KFKS 192336Z AUTO 00000KT 10SM BKN085 OVC110 04/M02 A3022 RMK AO2 T00401017

FAA Disclaimer: The data displayed is for advisory purposes only and is not to be used for flight planning or operations.